sensor_id;sensor_type;location;lat;lon;timestamp;temperature;humidity
61896;DHT22;47835;52.778;5.956;2022-07-29T00:02:23;21.40;67.50
61896;DHT22;47835;52.778;5.956;2022-07-29T00:04:48;21.40;67.50
61896;DHT22;47835;52.778;5.956;2022-07-29T00:07:14;21.40;67.30
61896;DHT22;47835;52.778;5.956;2022-07-29T00:09:39;21.40;67.60
61896;DHT22;47835;52.778;5.956;2022-07-29T00:12:05;21.40;67.60
61896;DHT22;47835;52.778;5.956;2022-07-29T00:14:31;21.40;67.70
61896;DHT22;47835;52.778;5.956;2022-07-29T00:16:56;21.40;67.70
61896;DHT22;47835;52.778;5.956;2022-07-29T00:19:22;21.40;67.60
61896;DHT22;47835;52.778;5.956;2022-07-29T00:21:47;21.40;67.70
61896;DHT22;47835;52.778;5.956;2022-07-29T00:24:13;21.40;67.80
61896;DHT22;47835;52.778;5.956;2022-07-29T00:26:39;21.40;68.10
61896;DHT22;47835;52.778;5.956;2022-07-29T00:29:04;21.40;68.10
61896;DHT22;47835;52.778;5.956;2022-07-29T00:31:30;21.40;68.20
61896;DHT22;47835;52.778;5.956;2022-07-29T00:33:56;21.40;68.40
61896;DHT22;47835;52.778;5.956;2022-07-29T00:36:22;21.40;68.40
61896;DHT22;47835;52.778;5.956;2022-07-29T00:38:49;21.40;68.40
61896;DHT22;47835;52.778;5.956;2022-07-29T00:41:15;21.40;68.50
61896;DHT22;47835;52.778;5.956;2022-07-29T00:43:41;21.40;68.50
61896;DHT22;47835;52.778;5.956;2022-07-29T00:46:07;21.40;68.50
61896;DHT22;47835;52.778;5.956;2022-07-29T00:48:32;21.30;68.60
61896;DHT22;47835;52.778;5.956;2022-07-29T00:50:59;21.40;68.70
61896;DHT22;47835;52.778;5.956;2022-07-29T00:53:26;21.40;68.70
61896;DHT22;47835;52.778;5.956;2022-07-29T00:55:54;21.40;68.60
61896;DHT22;47835;52.778;5.956;2022-07-29T00:58:20;21.30;68.80
61896;DHT22;47835;52.778;5.956;2022-07-29T01:00:46;21.30;68.90
61896;DHT22;47835;52.778;5.956;2022-07-29T01:03:12;21.40;69.00
61896;DHT22;47835;52.778;5.956;2022-07-29T01:05:38;21.30;68.80
61896;DHT22;47835;52.778;5.956;2022-07-29T01:08:05;21.30;68.90
61896;DHT22;47835;52.778;5.956;2022-07-29T01:10:31;21.30;69.10
61896;DHT22;47835;52.778;5.956;2022-07-29T01:12:58;21.30;69.10
61896;DHT22;47835;52.778;5.956;2022-07-29T01:15:24;21.30;69.10
61896;DHT22;47835;52.778;5.956;2022-07-29T01:18:16;21.30;69.20
61896;DHT22;47835;52.778;5.956;2022-07-29T01:21:23;21.30;69.10
61896;DHT22;47835;52.778;5.956;2022-07-29T01:29:26;21.30;69.20
61896;DHT22;47835;52.778;5.956;2022-07-29T01:32:14;21.30;69.20
61896;DHT22;47835;52.778;5.956;2022-07-29T01:34:53;21.30;69.20
61896;DHT22;47835;52.778;5.956;2022-07-29T01:37:23;21.30;69.40
61896;DHT22;47835;52.778;5.956;2022-07-29T01:39:53;21.30;69.20
61896;DHT22;47835;52.778;5.956;2022-07-29T01:42:34;21.30;69.40
61896;DHT22;47835;52.778;5.956;2022-07-29T01:48:02;21.30;69.40
61896;DHT22;47835;52.778;5.956;2022-07-29T01:50:33;21.30;69.50
61896;DHT22;47835;52.778;5.956;2022-07-29T01:53:02;21.20;69.40
61896;DHT22;47835;52.778;5.956;2022-07-29T01:55:36;21.20;69.40
61896;DHT22;47835;52.778;5.956;2022-07-29T01:58:04;21.30;69.60
61896;DHT22;47835;52.778;5.956;2022-07-29T02:00:32;21.30;69.50
61896;DHT22;47835;52.778;5.956;2022-07-29T02:03:00;21.20;69.40
61896;DHT22;47835;52.778;5.956;2022-07-29T02:05:28;21.20;69.40
61896;DHT22;47835;52.778;5.956;2022-07-29T02:07:56;21.20;69.40
61896;DHT22;47835;52.778;5.956;2022-07-29T02:10:25;21.20;69.40
61896;DHT22;47835;52.778;5.956;2022-07-29T02:12:52;21.20;69.40
61896;DHT22;47835;52.778;5.956;2022-07-29T02:15:19;21.20;69.50
61896;DHT22;47835;52.778;5.956;2022-07-29T02:17:51;21.20;69.40
61896;DHT22;47835;52.778;5.956;2022-07-29T02:20:19;21.20;69.60
61896;DHT22;47835;52.778;5.956;2022-07-29T02:22:46;21.20;69.60
61896;DHT22;47835;52.778;5.956;2022-07-29T02:25:12;21.20;69.60
61896;DHT22;47835;52.778;5.956;2022-07-29T02:27:39;21.20;69.60
61896;DHT22;47835;52.778;5.956;2022-07-29T02:30:06;21.20;69.70
61896;DHT22;47835;52.778;5.956;2022-07-29T02:32:34;21.20;69.80
61896;DHT22;47835;52.778;5.956;2022-07-29T02:35:01;21.20;69.70
61896;DHT22;47835;52.778;5.956;2022-07-29T02:37:27;21.20;70.00
61896;DHT22;47835;52.778;5.956;2022-07-29T02:39:55;21.20;70.30
61896;DHT22;47835;52.778;5.956;2022-07-29T02:42:22;21.20;70.30
61896;DHT22;47835;52.778;5.956;2022-07-29T02:44:48;21.20;70.60
61896;DHT22;47835;52.778;5.956;2022-07-29T02:47:41;21.20;70.60
61896;DHT22;47835;52.778;5.956;2022-07-29T02:50:12;21.20;70.60
61896;DHT22;47835;52.778;5.956;2022-07-29T02:52:45;21.20;70.40
61896;DHT22;47835;52.778;5.956;2022-07-29T02:55:19;21.20;70.60
61896;DHT22;47835;52.778;5.956;2022-07-29T02:58:05;21.20;70.70
61896;DHT22;47835;52.778;5.956;2022-07-29T03:00:36;21.20;70.90
61896;DHT22;47835;52.778;5.956;2022-07-29T03:03:05;21.20;70.80
61896;DHT22;47835;52.778;5.956;2022-07-29T03:05:32;21.20;70.90
61896;DHT22;47835;52.778;5.956;2022-07-29T03:08:01;21.20;70.70
61896;DHT22;47835;52.778;5.956;2022-07-29T03:10:28;21.20;70.70
61896;DHT22;47835;52.778;5.956;2022-07-29T03:12:55;21.20;70.90
61896;DHT22;47835;52.778;5.956;2022-07-29T03:15:22;21.20;71.00
61896;DHT22;47835;52.778;5.956;2022-07-29T03:17:49;21.20;71.10
61896;DHT22;47835;52.778;5.956;2022-07-29T03:20:14;21.20;71.10
61896;DHT22;47835;52.778;5.956;2022-07-29T03:22:42;21.10;71.10
61896;DHT22;47835;52.778;5.956;2022-07-29T03:25:13;21.20;71.20
61896;DHT22;47835;52.778;5.956;2022-07-29T03:27:39;21.10;71.00
61896;DHT22;47835;52.778;5.956;2022-07-29T03:30:06;21.10;71.30
61896;DHT22;47835;52.778;5.956;2022-07-29T03:32:32;21.20;71.20
61896;DHT22;47835;52.778;5.956;2022-07-29T03:34:58;21.20;71.20
61896;DHT22;47835;52.778;5.956;2022-07-29T03:37:24;21.20;71.40
61896;DHT22;47835;52.778;5.956;2022-07-29T03:39:51;21.10;71.40
61896;DHT22;47835;52.778;5.956;2022-07-29T03:42:19;21.10;71.50
61896;DHT22;47835;52.778;5.956;2022-07-29T03:44:47;21.10;71.60
61896;DHT22;47835;52.778;5.956;2022-07-29T03:47:15;21.10;72.50
61896;DHT22;47835;52.778;5.956;2022-07-29T03:49:42;21.10;71.80
61896;DHT22;47835;52.778;5.956;2022-07-29T03:52:08;21.20;71.80
61896;DHT22;47835;52.778;5.956;2022-07-29T03:54:34;21.10;71.90
61896;DHT22;47835;52.778;5.956;2022-07-29T03:57:01;21.10;71.80
61896;DHT22;47835;52.778;5.956;2022-07-29T03:59:30;21.10;71.70
61896;DHT22;47835;52.778;5.956;2022-07-29T04:01:58;21.10;72.60
61896;DHT22;47835;52.778;5.956;2022-07-29T04:04:24;21.10;71.80
61896;DHT22;47835;52.778;5.956;2022-07-29T04:06:50;21.10;71.70
61896;DHT22;47835;52.778;5.956;2022-07-29T04:09:15;21.10;71.70
61896;DHT22;47835;52.778;5.956;2022-07-29T04:11:41;21.10;71.70
61896;DHT22;47835;52.778;5.956;2022-07-29T04:14:07;21.10;71.70
61896;DHT22;47835;52.778;5.956;2022-07-29T04:16:33;21.10;71.70
61896;DHT22;47835;52.778;5.956;2022-07-29T04:18:59;21.10;71.90
61896;DHT22;47835;52.778;5.956;2022-07-29T04:21:24;21.10;72.00
61896;DHT22;47835;52.778;5.956;2022-07-29T04:23:50;21.10;72.00
61896;DHT22;47835;52.778;5.956;2022-07-29T04:26:17;21.10;72.10
61896;DHT22;47835;52.778;5.956;2022-07-29T04:28:42;21.10;72.10
61896;DHT22;47835;52.778;5.956;2022-07-29T04:31:08;21.10;72.10
61896;DHT22;47835;52.778;5.956;2022-07-29T04:33:34;21.10;72.40
61896;DHT22;47835;52.778;5.956;2022-07-29T04:36:00;21.10;72.20
61896;DHT22;47835;52.778;5.956;2022-07-29T04:38:25;21.00;72.20
61896;DHT22;47835;52.778;5.956;2022-07-29T04:40:51;21.10;72.30
61896;DHT22;47835;52.778;5.956;2022-07-29T04:43:16;21.10;72.30
61896;DHT22;47835;52.778;5.956;2022-07-29T04:45:42;21.10;72.30
61896;DHT22;47835;52.778;5.956;2022-07-29T04:48:08;21.00;72.30
61896;DHT22;47835;52.778;5.956;2022-07-29T04:50:34;21.00;72.40
61896;DHT22;47835;52.778;5.956;2022-07-29T04:52:59;21.00;72.40
61896;DHT22;47835;52.778;5.956;2022-07-29T04:55:25;21.00;72.50
61896;DHT22;47835;52.778;5.956;2022-07-29T04:57:51;21.00;72.60
61896;DHT22;47835;52.778;5.956;2022-07-29T05:00:17;21.00;72.70
61896;DHT22;47835;52.778;5.956;2022-07-29T05:02:42;21.00;72.70
61896;DHT22;47835;52.778;5.956;2022-07-29T05:05:08;21.00;72.70
61896;DHT22;47835;52.778;5.956;2022-07-29T05:07:34;21.00;72.80
61896;DHT22;47835;52.778;5.956;2022-07-29T05:09:59;21.00;72.80
61896;DHT22;47835;52.778;5.956;2022-07-29T05:12:25;21.00;72.80
61896;DHT22;47835;52.778;5.956;2022-07-29T05:14:51;21.00;72.90
61896;DHT22;47835;52.778;5.956;2022-07-29T05:17:17;21.00;73.00
61896;DHT22;47835;52.778;5.956;2022-07-29T05:19:42;21.00;72.80
61896;DHT22;47835;52.778;5.956;2022-07-29T05:22:08;21.00;72.60
61896;DHT22;47835;52.778;5.956;2022-07-29T05:24:33;21.10;73.00
61896;DHT22;47835;52.778;5.956;2022-07-29T05:26:59;21.10;72.90
61896;DHT22;47835;52.778;5.956;2022-07-29T05:29:24;21.10;72.90
61896;DHT22;47835;52.778;5.956;2022-07-29T05:31:50;21.10;72.80
61896;DHT22;47835;52.778;5.956;2022-07-29T05:34:18;21.10;73.60
61896;DHT22;47835;52.778;5.956;2022-07-29T05:36:44;21.10;73.80
61896;DHT22;47835;52.778;5.956;2022-07-29T05:39:10;21.10;75.00
61896;DHT22;47835;52.778;5.956;2022-07-29T05:41:36;21.20;74.60
61896;DHT22;47835;52.778;5.956;2022-07-29T05:44:02;21.20;74.60
61896;DHT22;47835;52.778;5.956;2022-07-29T05:46:27;21.20;75.60
61896;DHT22;47835;52.778;5.956;2022-07-29T05:48:53;21.20;74.80
61896;DHT22;47835;52.778;5.956;2022-07-29T05:51:19;21.20;77.20
61896;DHT22;47835;52.778;5.956;2022-07-29T05:53:45;21.20;76.20
61896;DHT22;47835;52.778;5.956;2022-07-29T05:56:11;21.30;74.70
61896;DHT22;47835;52.778;5.956;2022-07-29T05:58:37;21.30;74.30
61896;DHT22;47835;52.778;5.956;2022-07-29T06:01:03;21.20;73.90
61896;DHT22;47835;52.778;5.956;2022-07-29T06:03:28;21.20;73.70
61896;DHT22;47835;52.778;5.956;2022-07-29T06:05:54;21.30;73.90
61896;DHT22;47835;52.778;5.956;2022-07-29T06:08:20;21.20;73.70
61896;DHT22;47835;52.778;5.956;2022-07-29T06:10:46;21.20;73.80
61896;DHT22;47835;52.778;5.956;2022-07-29T06:13:12;21.20;75.40
61896;DHT22;47835;52.778;5.956;2022-07-29T06:15:37;21.30;75.80
61896;DHT22;47835;52.778;5.956;2022-07-29T06:18:03;21.30;74.30
61896;DHT22;47835;52.778;5.956;2022-07-29T06:20:30;21.20;75.60
61896;DHT22;47835;52.778;5.956;2022-07-29T06:22:56;21.30;74.20
61896;DHT22;47835;52.778;5.956;2022-07-29T06:25:21;21.30;74.70
61896;DHT22;47835;52.778;5.956;2022-07-29T06:27:47;21.30;75.20
61896;DHT22;47835;52.778;5.956;2022-07-29T06:30:13;21.30;75.40
61896;DHT22;47835;52.778;5.956;2022-07-29T06:32:38;21.30;75.20
61896;DHT22;47835;52.778;5.956;2022-07-29T06:35:05;21.30;74.40
61896;DHT22;47835;52.778;5.956;2022-07-29T06:37:31;21.30;74.40
61896;DHT22;47835;52.778;5.956;2022-07-29T06:39:56;21.30;74.00
61896;DHT22;47835;52.778;5.956;2022-07-29T06:42:44;21.30;74.60
61896;DHT22;47835;52.778;5.956;2022-07-29T06:45:10;21.30;73.60
61896;DHT22;47835;52.778;5.956;2022-07-29T06:47:36;21.30;73.10
61896;DHT22;47835;52.778;5.956;2022-07-29T06:50:02;21.30;72.90
61896;DHT22;47835;52.778;5.956;2022-07-29T06:52:28;21.30;73.80
61896;DHT22;47835;52.778;5.956;2022-07-29T06:54:54;21.30;72.90
61896;DHT22;47835;52.778;5.956;2022-07-29T06:57:21;21.30;73.00
61896;DHT22;47835;52.778;5.956;2022-07-29T06:59:47;21.30;75.30
61896;DHT22;47835;52.778;5.956;2022-07-29T07:02:13;21.30;74.90
61896;DHT22;47835;52.778;5.956;2022-07-29T07:04:38;21.30;74.10
61896;DHT22;47835;52.778;5.956;2022-07-29T07:07:04;21.30;76.00
61896;DHT22;47835;52.778;5.956;2022-07-29T07:09:30;21.30;74.60
61896;DHT22;47835;52.778;5.956;2022-07-29T07:11:56;21.30;73.90
61896;DHT22;47835;52.778;5.956;2022-07-29T07:14:21;21.30;73.40
61896;DHT22;47835;52.778;5.956;2022-07-29T07:16:47;21.30;73.50
61896;DHT22;47835;52.778;5.956;2022-07-29T07:19:13;21.20;74.00
61896;DHT22;47835;52.778;5.956;2022-07-29T07:21:38;21.30;75.20
61896;DHT22;47835;52.778;5.956;2022-07-29T07:24:04;21.30;76.00
61896;DHT22;47835;52.778;5.956;2022-07-29T07:26:30;21.20;75.40
61896;DHT22;47835;52.778;5.956;2022-07-29T07:28:56;21.30;77.20
61896;DHT22;47835;52.778;5.956;2022-07-29T07:31:22;21.30;78.30
61896;DHT22;47835;52.778;5.956;2022-07-29T07:33:47;21.30;78.00
61896;DHT22;47835;52.778;5.956;2022-07-29T07:36:13;21.20;81.20
61896;DHT22;47835;52.778;5.956;2022-07-29T07:38:39;21.30;79.20
61896;DHT22;47835;52.778;5.956;2022-07-29T07:41:04;21.30;79.20
61896;DHT22;47835;52.778;5.956;2022-07-29T07:43:30;21.30;79.00
61896;DHT22;47835;52.778;5.956;2022-07-29T07:45:56;21.30;78.50
61896;DHT22;47835;52.778;5.956;2022-07-29T07:48:22;21.20;79.00
61896;DHT22;47835;52.778;5.956;2022-07-29T07:50:47;21.30;79.00
61896;DHT22;47835;52.778;5.956;2022-07-29T07:53:15;21.20;79.80
61896;DHT22;47835;52.778;5.956;2022-07-29T07:55:42;21.20;81.00
61896;DHT22;47835;52.778;5.956;2022-07-29T07:58:08;21.20;80.30
61896;DHT22;47835;52.778;5.956;2022-07-29T08:00:34;21.20;80.60
61896;DHT22;47835;52.778;5.956;2022-07-29T08:02:59;21.20;80.40
61896;DHT22;47835;52.778;5.956;2022-07-29T08:05:25;21.20;80.40
61896;DHT22;47835;52.778;5.956;2022-07-29T08:07:50;21.20;80.10
61896;DHT22;47835;52.778;5.956;2022-07-29T08:10:18;21.10;79.90
61896;DHT22;47835;52.778;5.956;2022-07-29T08:13:07;21.10;80.20
61896;DHT22;47835;52.778;5.956;2022-07-29T08:15:33;21.10;80.10
61896;DHT22;47835;52.778;5.956;2022-07-29T08:17:59;21.10;80.20
61896;DHT22;47835;52.778;5.956;2022-07-29T08:20:25;21.10;80.70
61896;DHT22;47835;52.778;5.956;2022-07-29T08:22:51;21.10;83.30
61896;DHT22;47835;52.778;5.956;2022-07-29T08:25:18;21.20;81.70
61896;DHT22;47835;52.778;5.956;2022-07-29T08:27:46;21.20;81.50
61896;DHT22;47835;52.778;5.956;2022-07-29T08:30:12;21.20;83.20
61896;DHT22;47835;52.778;5.956;2022-07-29T08:32:38;21.20;82.00
61896;DHT22;47835;52.778;5.956;2022-07-29T08:35:04;21.20;82.50
61896;DHT22;47835;52.778;5.956;2022-07-29T08:37:30;21.20;81.70
61896;DHT22;47835;52.778;5.956;2022-07-29T08:39:55;21.20;82.10
61896;DHT22;47835;52.778;5.956;2022-07-29T08:42:21;21.20;84.00
61896;DHT22;47835;52.778;5.956;2022-07-29T08:44:47;21.30;81.90
61896;DHT22;47835;52.778;5.956;2022-07-29T08:47:16;21.30;81.60
61896;DHT22;47835;52.778;5.956;2022-07-29T08:49:42;21.30;80.40
61896;DHT22;47835;52.778;5.956;2022-07-29T08:52:11;21.30;80.20
61896;DHT22;47835;52.778;5.956;2022-07-29T08:54:38;21.30;80.90
61896;DHT22;47835;52.778;5.956;2022-07-29T08:57:04;21.30;79.20
61896;DHT22;47835;52.778;5.956;2022-07-29T08:59:32;21.30;78.80
61896;DHT22;47835;52.778;5.956;2022-07-29T09:02:00;21.20;79.10
61896;DHT22;47835;52.778;5.956;2022-07-29T09:04:34;21.30;78.70
61896;DHT22;47835;52.778;5.956;2022-07-29T09:07:03;21.30;78.20
61896;DHT22;47835;52.778;5.956;2022-07-29T09:09:30;21.20;77.90
61896;DHT22;47835;52.778;5.956;2022-07-29T09:11:55;21.20;78.00
61896;DHT22;47835;52.778;5.956;2022-07-29T09:14:21;21.20;78.60
61896;DHT22;47835;52.778;5.956;2022-07-29T09:16:55;21.20;78.30
61896;DHT22;47835;52.778;5.956;2022-07-29T09:19:22;21.20;78.50
61896;DHT22;47835;52.778;5.956;2022-07-29T09:21:48;21.20;78.90
61896;DHT22;47835;52.778;5.956;2022-07-29T09:24:23;21.20;79.40
61896;DHT22;47835;52.778;5.956;2022-07-29T09:26:48;21.30;80.40
61896;DHT22;47835;52.778;5.956;2022-07-29T09:29:19;21.30;81.10
61896;DHT22;47835;52.778;5.956;2022-07-29T09:31:47;21.30;80.00
61896;DHT22;47835;52.778;5.956;2022-07-29T09:34:16;21.30;79.30
61896;DHT22;47835;52.778;5.956;2022-07-29T09:36:46;21.30;78.90
61896;DHT22;47835;52.778;5.956;2022-07-29T09:39:13;21.40;78.90
61896;DHT22;47835;52.778;5.956;2022-07-29T09:41:50;21.40;78.20
61896;DHT22;47835;52.778;5.956;2022-07-29T09:44:21;21.40;77.50
61896;DHT22;47835;52.778;5.956;2022-07-29T09:49:24;21.40;76.80
61896;DHT22;47835;52.778;5.956;2022-07-29T09:52:08;21.40;76.80
61896;DHT22;47835;52.778;5.956;2022-07-29T09:54:35;21.40;76.50
61896;DHT22;47835;52.778;5.956;2022-07-29T09:57:22;21.40;76.10
61896;DHT22;47835;52.778;5.956;2022-07-29T10:00:02;21.40;76.00
61896;DHT22;47835;52.778;5.956;2022-07-29T10:02:30;21.30;75.90
61896;DHT22;47835;52.778;5.956;2022-07-29T10:04:57;21.40;76.00
61896;DHT22;47835;52.778;5.956;2022-07-29T10:07:22;21.40;75.80
61896;DHT22;47835;52.778;5.956;2022-07-29T10:09:56;21.40;76.40
61896;DHT22;47835;52.778;5.956;2022-07-29T10:12:23;21.40;76.50
61896;DHT22;47835;52.778;5.956;2022-07-29T10:14:50;21.40;76.60
61896;DHT22;47835;52.778;5.956;2022-07-29T10:17:16;21.40;76.50
61896;DHT22;47835;52.778;5.956;2022-07-29T10:19:42;21.40;76.40
61896;DHT22;47835;52.778;5.956;2022-07-29T10:22:09;21.40;76.40
61896;DHT22;47835;52.778;5.956;2022-07-29T10:24:37;21.50;76.90
61896;DHT22;47835;52.778;5.956;2022-07-29T10:27:05;21.50;76.90
61896;DHT22;47835;52.778;5.956;2022-07-29T10:29:31;21.50;76.90
61896;DHT22;47835;52.778;5.956;2022-07-29T10:40:50;21.50;79.30
61896;DHT22;47835;52.778;5.956;2022-07-29T10:43:40;21.60;79.40
61896;DHT22;47835;52.778;5.956;2022-07-29T10:46:06;21.60;79.50
61896;DHT22;47835;52.778;5.956;2022-07-29T10:48:32;21.70;79.00
61896;DHT22;47835;52.778;5.956;2022-07-29T10:50:59;21.70;78.80
61896;DHT22;47835;52.778;5.956;2022-07-29T11:01:50;21.70;77.90
61896;DHT22;47835;52.778;5.956;2022-07-29T11:09:29;21.80;79.40
61896;DHT22;47835;52.778;5.956;2022-07-29T11:11:56;21.80;79.90
61896;DHT22;47835;52.778;5.956;2022-07-29T11:17:20;21.90;80.10
61896;DHT22;47835;52.778;5.956;2022-07-29T11:19:45;21.90;80.00
61896;DHT22;47835;52.778;5.956;2022-07-29T11:22:34;21.90;81.10
61896;DHT22;47835;52.778;5.956;2022-07-29T11:25:16;22.00;80.70
61896;DHT22;47835;52.778;5.956;2022-07-29T11:27:43;22.00;80.20
61896;DHT22;47835;52.778;5.956;2022-07-29T11:30:09;22.00;80.70
61896;DHT22;47835;52.778;5.956;2022-07-29T11:32:38;22.00;80.40
61896;DHT22;47835;52.778;5.956;2022-07-29T11:35:18;22.10;80.50
61896;DHT22;47835;52.778;5.956;2022-07-29T11:37:46;22.00;80.20
61896;DHT22;47835;52.778;5.956;2022-07-29T11:40:14;22.00;80.40
61896;DHT22;47835;52.778;5.956;2022-07-29T11:42:42;22.00;79.80
61896;DHT22;47835;52.778;5.956;2022-07-29T11:50:14;22.00;79.30
61896;DHT22;47835;52.778;5.956;2022-07-29T11:52:44;22.00;80.00
61896;DHT22;47835;52.778;5.956;2022-07-29T11:55:13;22.00;80.00
61896;DHT22;47835;52.778;5.956;2022-07-29T11:57:47;22.00;79.50
61896;DHT22;47835;52.778;5.956;2022-07-29T12:00:24;22.00;80.40
61896;DHT22;47835;52.778;5.956;2022-07-29T12:02:50;22.00;79.70
61896;DHT22;47835;52.778;5.956;2022-07-29T12:05:19;22.00;80.70
61896;DHT22;47835;52.778;5.956;2022-07-29T12:07:45;22.00;84.30
61896;DHT22;47835;52.778;5.956;2022-07-29T12:10:11;22.00;84.90
61896;DHT22;47835;52.778;5.956;2022-07-29T12:12:38;22.00;84.90
61896;DHT22;47835;52.778;5.956;2022-07-29T12:15:15;22.00;84.60
61896;DHT22;47835;52.778;5.956;2022-07-29T12:17:43;22.00;86.60
61896;DHT22;47835;52.778;5.956;2022-07-29T12:20:09;22.00;86.30
61896;DHT22;47835;52.778;5.956;2022-07-29T12:22:37;22.00;86.00
61896;DHT22;47835;52.778;5.956;2022-07-29T12:25:10;22.00;85.50
61896;DHT22;47835;52.778;5.956;2022-07-29T12:27:37;22.00;84.70
61896;DHT22;47835;52.778;5.956;2022-07-29T12:30:09;22.00;85.00
61896;DHT22;47835;52.778;5.956;2022-07-29T12:32:48;22.00;84.60
61896;DHT22;47835;52.778;5.956;2022-07-29T12:35:14;22.00;85.10
61896;DHT22;47835;52.778;5.956;2022-07-29T12:37:43;22.00;85.10
61896;DHT22;47835;52.778;5.956;2022-07-29T12:40:10;22.00;83.70
61896;DHT22;47835;52.778;5.956;2022-07-29T12:42:36;22.00;85.20
61896;DHT22;47835;52.778;5.956;2022-07-29T12:45:04;22.00;84.00
61896;DHT22;47835;52.778;5.956;2022-07-29T12:47:30;22.00;85.80
61896;DHT22;47835;52.778;5.956;2022-07-29T12:50:12;22.00;83.80
61896;DHT22;47835;52.778;5.956;2022-07-29T12:52:40;22.00;85.10
61896;DHT22;47835;52.778;5.956;2022-07-29T12:55:06;22.00;85.50
61896;DHT22;47835;52.778;5.956;2022-07-29T12:57:47;22.00;86.50
61896;DHT22;47835;52.778;5.956;2022-07-29T13:00:14;22.00;86.70
61896;DHT22;47835;52.778;5.956;2022-07-29T13:02:41;22.10;85.80
61896;DHT22;47835;52.778;5.956;2022-07-29T13:05:10;22.00;86.80
61896;DHT22;47835;52.778;5.956;2022-07-29T13:07:37;22.10;87.70
61896;DHT22;47835;52.778;5.956;2022-07-29T13:10:17;22.00;89.10
61896;DHT22;47835;52.778;5.956;2022-07-29T13:13:02;22.10;87.90
61896;DHT22;47835;52.778;5.956;2022-07-29T13:15:29;22.10;87.10
61896;DHT22;47835;52.778;5.956;2022-07-29T13:17:55;22.10;87.80
61896;DHT22;47835;52.778;5.956;2022-07-29T13:20:24;22.10;88.00
61896;DHT22;47835;52.778;5.956;2022-07-29T13:22:50;22.10;88.20
61896;DHT22;47835;52.778;5.956;2022-07-29T13:25:24;22.10;87.30
61896;DHT22;47835;52.778;5.956;2022-07-29T13:27:49;22.10;86.40
61896;DHT22;47835;52.778;5.956;2022-07-29T13:30:15;22.10;86.80
61896;DHT22;47835;52.778;5.956;2022-07-29T13:32:40;22.10;86.30
61896;DHT22;47835;52.778;5.956;2022-07-29T13:35:08;22.10;86.50
61896;DHT22;47835;52.778;5.956;2022-07-29T13:37:35;22.10;85.10
61896;DHT22;47835;52.778;5.956;2022-07-29T13:40:04;22.10;84.00
61896;DHT22;47835;52.778;5.956;2022-07-29T13:42:30;22.10;83.30
61896;DHT22;47835;52.778;5.956;2022-07-29T13:44:56;22.10;83.40
61896;DHT22;47835;52.778;5.956;2022-07-29T13:47:22;22.10;82.80
61896;DHT22;47835;52.778;5.956;2022-07-29T13:49:48;22.10;83.20
61896;DHT22;47835;52.778;5.956;2022-07-29T13:52:14;22.10;82.60
61896;DHT22;47835;52.778;5.956;2022-07-29T13:54:39;22.10;82.80
61896;DHT22;47835;52.778;5.956;2022-07-29T13:57:05;22.10;82.60
61896;DHT22;47835;52.778;5.956;2022-07-29T13:59:31;22.10;82.00
61896;DHT22;47835;52.778;5.956;2022-07-29T14:01:57;22.10;81.90
61896;DHT22;47835;52.778;5.956;2022-07-29T14:04:22;22.10;81.60
61896;DHT22;47835;52.778;5.956;2022-07-29T14:06:51;22.00;81.40
61896;DHT22;47835;52.778;5.956;2022-07-29T14:09:17;22.00;81.20
61896;DHT22;47835;52.778;5.956;2022-07-29T14:11:43;22.10;81.40
61896;DHT22;47835;52.778;5.956;2022-07-29T14:14:08;22.10;81.80
61896;DHT22;47835;52.778;5.956;2022-07-29T14:16:35;22.10;81.20
61896;DHT22;47835;52.778;5.956;2022-07-29T14:19:01;22.00;81.00
61896;DHT22;47835;52.778;5.956;2022-07-29T14:21:26;22.00;81.00
61896;DHT22;47835;52.778;5.956;2022-07-29T14:23:52;22.00;81.30
61896;DHT22;47835;52.778;5.956;2022-07-29T14:26:20;22.00;81.20
61896;DHT22;47835;52.778;5.956;2022-07-29T14:28:46;22.00;81.50
61896;DHT22;47835;52.778;5.956;2022-07-29T14:31:12;22.00;81.40
61896;DHT22;47835;52.778;5.956;2022-07-29T14:33:37;22.00;81.70
61896;DHT22;47835;52.778;5.956;2022-07-29T14:36:03;22.00;81.50
61896;DHT22;47835;52.778;5.956;2022-07-29T14:38:29;22.00;81.70
61896;DHT22;47835;52.778;5.956;2022-07-29T14:40:54;22.10;82.00
61896;DHT22;47835;52.778;5.956;2022-07-29T14:43:20;22.10;81.90
61896;DHT22;47835;52.778;5.956;2022-07-29T14:45:45;22.10;82.30
61896;DHT22;47835;52.778;5.956;2022-07-29T14:48:11;22.10;82.40
61896;DHT22;47835;52.778;5.956;2022-07-29T14:50:37;22.10;82.50
61896;DHT22;47835;52.778;5.956;2022-07-29T14:53:03;22.10;82.70
61896;DHT22;47835;52.778;5.956;2022-07-29T14:55:29;22.10;82.00
61896;DHT22;47835;52.778;5.956;2022-07-29T14:57:55;22.10;81.80
61896;DHT22;47835;52.778;5.956;2022-07-29T15:00:21;22.10;81.80
61896;DHT22;47835;52.778;5.956;2022-07-29T15:02:47;22.10;81.90
61896;DHT22;47835;52.778;5.956;2022-07-29T15:05:13;22.20;81.90
61896;DHT22;47835;52.778;5.956;2022-07-29T15:07:39;22.20;81.90
61896;DHT22;47835;52.778;5.956;2022-07-29T15:10:04;22.20;81.70
61896;DHT22;47835;52.778;5.956;2022-07-29T15:12:31;22.20;82.30
61896;DHT22;47835;52.778;5.956;2022-07-29T15:14:56;22.20;81.90
61896;DHT22;47835;52.778;5.956;2022-07-29T15:17:22;22.20;82.20
61896;DHT22;47835;52.778;5.956;2022-07-29T15:19:47;22.20;81.80
61896;DHT22;47835;52.778;5.956;2022-07-29T15:22:13;22.20;82.00
61896;DHT22;47835;52.778;5.956;2022-07-29T15:24:39;22.20;82.10
61896;DHT22;47835;52.778;5.956;2022-07-29T15:27:04;22.20;82.00
61896;DHT22;47835;52.778;5.956;2022-07-29T15:29:30;22.20;82.30
61896;DHT22;47835;52.778;5.956;2022-07-29T15:31:55;22.30;82.40
61896;DHT22;47835;52.778;5.956;2022-07-29T15:34:21;22.20;82.50
61896;DHT22;47835;52.778;5.956;2022-07-29T15:36:49;22.20;82.40
61896;DHT22;47835;52.778;5.956;2022-07-29T15:39:15;22.20;82.30
61896;DHT22;47835;52.778;5.956;2022-07-29T15:41:41;22.30;82.90
61896;DHT22;47835;52.778;5.956;2022-07-29T15:44:06;22.30;82.30
61896;DHT22;47835;52.778;5.956;2022-07-29T15:46:32;22.30;82.20
61896;DHT22;47835;52.778;5.956;2022-07-29T15:49:16;22.30;83.20
61896;DHT22;47835;52.778;5.956;2022-07-29T15:51:42;22.30;83.80
61896;DHT22;47835;52.778;5.956;2022-07-29T15:54:07;22.30;83.20
61896;DHT22;47835;52.778;5.956;2022-07-29T15:56:33;22.40;82.90
61896;DHT22;47835;52.778;5.956;2022-07-29T15:58:59;22.30;82.90
61896;DHT22;47835;52.778;5.956;2022-07-29T16:01:25;22.40;82.80
61896;DHT22;47835;52.778;5.956;2022-07-29T16:03:51;22.40;82.80
61896;DHT22;47835;52.778;5.956;2022-07-29T16:06:17;22.40;82.80
61896;DHT22;47835;52.778;5.956;2022-07-29T16:08:42;22.40;83.00
61896;DHT22;47835;52.778;5.956;2022-07-29T16:11:08;22.40;83.20
61896;DHT22;47835;52.778;5.956;2022-07-29T16:13:33;22.50;83.40
61896;DHT22;47835;52.778;5.956;2022-07-29T16:15:59;22.50;83.70